PWSweather.com
Personal Weather Stations
Station Observations
IONTARIO88
Lincoln, ON L0R

Lincoln, ON L0R

Lat: 43.1763563, Lon: -79.4719525

Elevation: 297

Station Type: Davis Vantage Pro 2 Plus

http://www.beamsvillewx.ca

High Low Average
Temperature 26.1°F-3.3°C 18.7°F-7.4°C 21.7°F-5.7°C
Dew Point 23.5°F-4.7°C 13.1°F-10.5°C 17.9°F-7.8°C
Winds 6.0 mph 9.7 kmh Calm Calm 2.0 mph S3.2 kmh S
Wind Gusts 13.0 mph20.9 kmh -- 5.0 mph8.0 kmh
Humidity 91% 78% 85%
Pressure 30.44 in1030.8 mb 30.15 in1021.0 mb -
Precipitation 0.17 in4.3 mm - -
Hour Temp Dew Point Humidity Winds Wind Gusts Pressure Precip Precip Rate Daily Precip Total
12:00 AM 19.9°F-6.7°C 15.0°F-9.4°C 81% 7.0 mph SW11.3 kmh SW 15.0 mph24.1 kmh 30.43 in1030.5 mb 0.00 in0.0 mm 0.00 in0.0 mm 0.00 in0.0 mm
12:15 AM 20.1°F-6.6°C 14.9°F-9.5°C 80% 6.0 mph SW9.7 kmh SW 12.0 mph19.3 kmh 30.43 in1030.5 mb 0.00 in0.0 mm 0.00 in0.0 mm 0.00 in0.0 mm
12:30 AM 19.9°F-6.7°C 14.8°F-9.6°C 80% 5.0 mph SW8.0 kmh SW 11.0 mph17.7 kmh 30.43 in1030.5 mb 0.00 in0.0 mm 0.00 in0.0 mm 0.00 in0.0 mm
12:45 AM 19.9°F-6.7°C 14.8°F-9.6°C 80% 5.0 mph SW8.0 kmh SW 13.0 mph20.9 kmh 30.43 in1030.5 mb 0.00 in0.0 mm 0.00 in0.0 mm 0.00 in0.0 mm
01:00 AM 20.1°F-6.6°C 14.9°F-9.5°C 80% 4.0 mph SW6.4 kmh SW 9.0 mph14.5 kmh 30.43 in1030.5 mb 0.00 in0.0 mm 0.00 in0.0 mm 0.00 in0.0 mm
01:15 AM 20.1°F-6.6°C 14.7°F-9.6°C 79% 5.0 mph WSW8.0 kmh WSW 11.0 mph17.7 kmh 30.43 in1030.5 mb 0.00 in0.0 mm 0.00 in0.0 mm 0.00 in0.0 mm
01:30 AM 19.9°F-6.7°C 14.5°F-9.7°C 79% 6.0 mph SW9.7 kmh SW 13.0 mph20.9 kmh 30.43 in1030.5 mb 0.00 in0.0 mm 0.00 in0.0 mm 0.00 in0.0 mm
01:45 AM 19.8°F-6.8°C 14.3°F-9.8°C 79% 5.0 mph SW8.0 kmh SW 9.0 mph14.5 kmh 30.43 in1030.5 mb 0.00 in0.0 mm 0.00 in0.0 mm 0.00 in0.0 mm
02:00 AM 19.9°F-6.7°C 14.8°F-9.6°C 80% 4.0 mph SW6.4 kmh SW 9.0 mph14.5 kmh 30.43 in1030.5 mb 0.00 in0.0 mm 0.00 in0.0 mm 0.00 in0.0 mm
02:15 AM 20.1°F-6.6°C 14.9°F-9.5°C 80% 4.0 mph SW6.4 kmh SW 9.0 mph14.5 kmh 30.43 in1030.5 mb 0.00 in0.0 mm 0.00 in0.0 mm 0.00 in0.0 mm
02:30 AM 20.1°F-6.6°C 14.9°F-9.5°C 80% 3.0 mph WSW4.8 kmh WSW 6.0 mph9.7 kmh 30.43 in1030.5 mb 0.00 in0.0 mm 0.00 in0.0 mm 0.00 in0.0 mm
02:45 AM 19.8°F-6.8°C 14.3°F-9.8°C 79% 2.0 mph WSW3.2 kmh WSW 6.0 mph9.7 kmh 30.43 in1030.5 mb 0.00 in0.0 mm 0.00 in0.0 mm 0.00 in0.0 mm
03:00 AM 19.2°F-7.1°C 13.8°F-10.1°C 79% 3.0 mph WSW4.8 kmh WSW 5.0 mph8.0 kmh 30.43 in1030.5 mb 0.00 in0.0 mm 0.00 in0.0 mm 0.00 in0.0 mm
03:15 AM 19.4°F-7.0°C 14.2°F-9.9°C 80% 3.0 mph WSW4.8 kmh WSW 6.0 mph9.7 kmh 30.43 in1030.5 mb 0.00 in0.0 mm 0.00 in0.0 mm 0.00 in0.0 mm
03:30 AM 19.6°F-6.9°C 14.1°F-9.9°C 79% 3.0 mph WSW4.8 kmh WSW 7.0 mph11.3 kmh 30.44 in1030.8 mb 0.00 in0.0 mm 0.00 in0.0 mm 0.00 in0.0 mm
03:45 AM 19.8°F-6.8°C 14.6°F-9.7°C 80% 3.0 mph WSW4.8 kmh WSW 8.0 mph12.9 kmh 30.44 in1030.8 mb 0.00 in0.0 mm 0.00 in0.0 mm 0.00 in0.0 mm
04:00 AM 19.4°F-7.0°C 14.2°F-9.9°C 80% 2.0 mph WSW3.2 kmh WSW 6.0 mph9.7 kmh 30.43 in1030.5 mb 0.00 in0.0 mm 0.00 in0.0 mm 0.00 in0.0 mm
04:15 AM 19.4°F-7.0°C 14.5°F-9.7°C 81% 3.0 mph SW4.8 kmh SW 7.0 mph11.3 kmh 30.42 in1030.1 mb 0.00 in0.0 mm 0.00 in0.0 mm 0.00 in0.0 mm
04:30 AM 19.2°F-7.1°C 14.3°F-9.8°C 81% 3.0 mph SW4.8 kmh SW 6.0 mph9.7 kmh 30.42 in1030.1 mb 0.00 in0.0 mm 0.00 in0.0 mm 0.00 in0.0 mm
04:45 AM 19.0°F-7.2°C 14.2°F-9.9°C 81% 2.0 mph SW3.2 kmh SW 7.0 mph11.3 kmh 30.42 in1030.1 mb 0.00 in0.0 mm 0.00 in0.0 mm 0.00 in0.0 mm
05:00 AM 19.0°F-7.2°C 14.2°F-9.9°C 81% 2.0 mph SW3.2 kmh SW 6.0 mph9.7 kmh 30.43 in1030.5 mb 0.00 in0.0 mm 0.00 in0.0 mm 0.00 in0.0 mm
05:15 AM 19.0°F-7.2°C 14.2°F-9.9°C 81% 4.0 mph SW6.4 kmh SW 7.0 mph11.3 kmh 30.43 in1030.5 mb 0.00 in0.0 mm 0.00 in0.0 mm 0.00 in0.0 mm
05:30 AM 19.2°F-7.1°C 14.3°F-9.8°C 81% 3.0 mph SW4.8 kmh SW 10.0 mph16.1 kmh 30.43 in1030.5 mb 0.00 in0.0 mm 0.00 in0.0 mm 0.00 in0.0 mm
05:45 AM 19.2°F-7.1°C 14.1°F-9.9°C 80% 3.0 mph SW4.8 kmh SW 7.0 mph11.3 kmh 30.43 in1030.5 mb 0.00 in0.0 mm 0.00 in0.0 mm 0.00 in0.0 mm
06:00 AM 19.2°F-7.1°C 13.8°F-10.1°C 79% 3.0 mph SW4.8 kmh SW 9.0 mph14.5 kmh 30.43 in1030.5 mb 0.00 in0.0 mm 0.00 in0.0 mm 0.00 in0.0 mm
06:15 AM 19.2°F-7.1°C 13.8°F-10.1°C 79% 3.0 mph SW4.8 kmh SW 7.0 mph11.3 kmh 30.43 in1030.5 mb 0.00 in0.0 mm 0.00 in0.0 mm 0.00 in0.0 mm
06:30 AM 19.2°F-7.1°C 13.8°F-10.1°C 79% 3.0 mph SW4.8 kmh SW 6.0 mph9.7 kmh 30.43 in1030.5 mb 0.00 in0.0 mm 0.00 in0.0 mm 0.00 in0.0 mm
06:45 AM 19.2°F-7.1°C 13.5°F-10.3°C 78% 3.0 mph SW4.8 kmh SW 7.0 mph11.3 kmh 30.43 in1030.5 mb 0.00 in0.0 mm 0.00 in0.0 mm 0.00 in0.0 mm
07:00 AM 19.0°F-7.2°C 13.3°F-10.4°C 78% 3.0 mph SW4.8 kmh SW 7.0 mph11.3 kmh 30.43 in1030.5 mb 0.00 in0.0 mm 0.00 in0.0 mm 0.00 in0.0 mm
07:15 AM 19.0°F-7.2°C 13.3°F-10.4°C 78% 3.0 mph SW4.8 kmh SW 6.0 mph9.7 kmh 30.43 in1030.5 mb 0.00 in0.0 mm 0.00 in0.0 mm 0.00 in0.0 mm
07:30 AM 18.9°F-7.3°C 13.1°F-10.5°C 78% 3.0 mph SW4.8 kmh SW 6.0 mph9.7 kmh 30.43 in1030.5 mb 0.00 in0.0 mm 0.00 in0.0 mm 0.00 in0.0 mm
07:45 AM 18.9°F-7.3°C 13.4°F-10.3°C 79% 3.0 mph SW4.8 kmh SW 6.0 mph9.7 kmh 30.43 in1030.5 mb 0.00 in0.0 mm 0.00 in0.0 mm 0.00 in0.0 mm
08:00 AM 19.0°F-7.2°C 13.9°F-10.1°C 80% 2.0 mph SW3.2 kmh SW 6.0 mph9.7 kmh 30.43 in1030.5 mb 0.00 in0.0 mm 0.00 in0.0 mm 0.00 in0.0 mm
08:15 AM 19.0°F-7.2°C 14.4°F-9.8°C 82% 3.0 mph SW4.8 kmh SW 6.0 mph9.7 kmh 30.43 in1030.5 mb 0.00 in0.0 mm 0.00 in0.0 mm 0.00 in0.0 mm
08:30 AM 19.0°F-7.2°C 14.7°F-9.6°C 83% 3.0 mph SW4.8 kmh SW 6.0 mph9.7 kmh 30.43 in1030.5 mb 0.00 in0.0 mm 0.00 in0.0 mm 0.00 in0.0 mm
08:45 AM 19.0°F-7.2°C 15.0°F-9.4°C 84% 4.0 mph SSW6.4 kmh SSW 9.0 mph14.5 kmh 30.43 in1030.5 mb 0.00 in0.0 mm 0.00 in0.0 mm 0.00 in0.0 mm
09:00 AM 18.7°F-7.4°C 14.6°F-9.7°C 84% 4.0 mph SSW6.4 kmh SSW 11.0 mph17.7 kmh 30.44 in1030.8 mb 0.00 in0.0 mm 0.00 in0.0 mm 0.00 in0.0 mm
09:15 AM 18.7°F-7.4°C 14.9°F-9.5°C 85% 3.0 mph SW4.8 kmh SW 9.0 mph14.5 kmh 30.44 in1030.8 mb 0.00 in0.0 mm 0.00 in0.0 mm 0.00 in0.0 mm
09:30 AM 18.9°F-7.3°C 15.4°F-9.2°C 86% 3.0 mph SSW4.8 kmh SSW 7.0 mph11.3 kmh 30.43 in1030.5 mb 0.00 in0.0 mm 0.00 in0.0 mm 0.00 in0.0 mm
09:45 AM 18.9°F-7.3°C 15.4°F-9.2°C 86% 3.0 mph SSW4.8 kmh SSW 7.0 mph11.3 kmh 30.43 in1030.5 mb 0.00 in0.0 mm 0.00 in0.0 mm 0.00 in0.0 mm
10:00 AM 18.9°F-7.3°C 15.4°F-9.2°C 86% 4.0 mph SSW6.4 kmh SSW 7.0 mph11.3 kmh 30.42 in1030.1 mb 0.00 in0.0 mm 0.00 in0.0 mm 0.00 in0.0 mm
10:15 AM 18.9°F-7.3°C 15.1°F-9.4°C 85% 4.0 mph S6.4 kmh S 9.0 mph14.5 kmh 30.41 in1029.8 mb 0.00 in0.0 mm 0.00 in0.0 mm 0.00 in0.0 mm
10:30 AM 19.0°F-7.2°C 15.3°F-9.3°C 85% 4.0 mph S6.4 kmh S 8.0 mph12.9 kmh 30.40 in1029.5 mb 0.00 in0.0 mm 0.00 in0.0 mm 0.00 in0.0 mm
10:45 AM 19.2°F-7.1°C 15.2°F-9.3°C 84% 4.0 mph S6.4 kmh S 9.0 mph14.5 kmh 30.40 in1029.5 mb 0.00 in0.0 mm 0.00 in0.0 mm 0.00 in0.0 mm
11:00 AM 19.6°F-6.9°C 15.5°F-9.2°C 84% 5.0 mph S8.0 kmh S 8.0 mph12.9 kmh 30.40 in1029.5 mb 0.00 in0.0 mm 0.00 in0.0 mm 0.00 in0.0 mm
11:15 AM 19.9°F-6.7°C 15.9°F-8.9°C 84% 4.0 mph S6.4 kmh S 8.0 mph12.9 kmh 30.41 in1029.8 mb 0.00 in0.0 mm 0.00 in0.0 mm 0.00 in0.0 mm
11:30 AM 19.9°F-6.7°C 15.9°F-8.9°C 84% 4.0 mph SSW6.4 kmh SSW 7.0 mph11.3 kmh 30.40 in1029.5 mb 0.00 in0.0 mm 0.00 in0.0 mm 0.00 in0.0 mm
11:45 AM 20.1°F-6.6°C 16.3°F-8.7°C 85% 3.0 mph S4.8 kmh S 7.0 mph11.3 kmh 30.39 in1029.1 mb 0.00 in0.0 mm 0.00 in0.0 mm 0.00 in0.0 mm
12:00 PM 20.7°F-6.3°C 16.6°F-8.6°C 84% 2.0 mph S3.2 kmh S 7.0 mph11.3 kmh 30.39 in1029.1 mb 0.01 in0.3 mm 0.01 in0.3 mm 0.01 in0.3 mm
12:15 PM 21.0°F-6.1°C 16.9°F-8.4°C 84% 3.0 mph SSW4.8 kmh SSW 5.0 mph8.0 kmh 30.39 in1029.1 mb 0.01 in0.3 mm 0.00 in0.0 mm 0.01 in0.3 mm
12:30 PM 20.8°F-6.2°C 16.5°F-8.6°C 83% 3.0 mph SSW4.8 kmh SSW 6.0 mph9.7 kmh 30.39 in1029.1 mb 0.01 in0.3 mm 0.00 in0.0 mm 0.01 in0.3 mm
12:45 PM 21.0°F-6.1°C 16.7°F-8.5°C 83% 3.0 mph S4.8 kmh S 6.0 mph9.7 kmh 30.38 in1028.8 mb 0.01 in0.3 mm 0.00 in0.0 mm 0.01 in0.3 mm
01:00 PM 21.4°F-5.9°C 17.3°F-8.2°C 84% 2.0 mph S3.2 kmh S 7.0 mph11.3 kmh 30.37 in1028.4 mb 0.01 in0.3 mm 0.00 in0.0 mm 0.02 in0.5 mm
01:15 PM 21.6°F-5.8°C 17.5°F-8.1°C 84% 3.0 mph S4.8 kmh S 7.0 mph11.3 kmh 30.36 in1028.1 mb 0.01 in0.3 mm 0.00 in0.0 mm 0.02 in0.5 mm
01:30 PM 21.7°F-5.7°C 17.4°F-8.1°C 83% 3.0 mph S4.8 kmh S 7.0 mph11.3 kmh 30.35 in1027.8 mb 0.01 in0.3 mm 0.00 in0.0 mm 0.02 in0.5 mm
01:45 PM 21.7°F-5.7°C 17.4°F-8.1°C 83% 3.0 mph S4.8 kmh S 7.0 mph11.3 kmh 30.34 in1027.4 mb 0.01 in0.3 mm 0.00 in0.0 mm 0.02 in0.5 mm
02:00 PM 21.9°F-5.6°C 17.8°F-7.9°C 84% 3.0 mph S4.8 kmh S 5.0 mph8.0 kmh 30.33 in1027.1 mb 0.00 in0.0 mm 0.00 in0.0 mm 0.02 in0.5 mm
02:15 PM 22.1°F-5.5°C 18.0°F-7.8°C 84% 2.0 mph S3.2 kmh S 5.0 mph8.0 kmh 30.31 in1026.4 mb 0.00 in0.0 mm 0.00 in0.0 mm 0.02 in0.5 mm
02:30 PM 22.5°F-5.3°C 18.1°F-7.7°C 83% 1.0 mph S1.6 kmh S 4.0 mph6.4 kmh 30.30 in1026.1 mb 0.01 in0.3 mm 0.04 in1.0 mm 0.02 in0.5 mm
02:45 PM 22.8°F-5.1°C 18.4°F-7.6°C 83% 1.0 mph S1.6 kmh S 4.0 mph6.4 kmh 30.29 in1025.7 mb 0.01 in0.3 mm 0.00 in0.0 mm 0.02 in0.5 mm
03:00 PM 23.5°F-4.7°C 19.4°F-7.0°C 84% Calm Calm 2.0 mph3.2 kmh 30.29 in1025.7 mb 0.01 in0.3 mm 0.00 in0.0 mm 0.02 in0.5 mm
03:15 PM 23.5°F-4.7°C 19.4°F-7.0°C 84% 1.0 mph S1.6 kmh S 3.0 mph4.8 kmh 30.27 in1025.1 mb 0.01 in0.3 mm 0.00 in0.0 mm 0.02 in0.5 mm
03:30 PM 23.7°F-4.6°C 19.9°F-6.7°C 85% 1.0 mph S1.6 kmh S 3.0 mph4.8 kmh 30.26 in1024.7 mb 0.00 in0.0 mm 0.00 in0.0 mm 0.02 in0.5 mm
03:45 PM 23.5°F-4.7°C 20.0°F-6.7°C 86% 2.0 mph S3.2 kmh S 5.0 mph8.0 kmh 30.25 in1024.4 mb 0.00 in0.0 mm 0.00 in0.0 mm 0.02 in0.5 mm
04:00 PM 23.4°F-4.8°C 19.8°F-6.8°C 86% 2.0 mph S3.2 kmh S 3.0 mph4.8 kmh 30.24 in1024.0 mb 0.01 in0.3 mm 0.01 in0.3 mm 0.03 in0.8 mm
04:15 PM 23.5°F-4.7°C 20.2°F-6.6°C 87% 2.0 mph S3.2 kmh S 4.0 mph6.4 kmh 30.22 in1023.4 mb 0.01 in0.3 mm 0.00 in0.0 mm 0.03 in0.8 mm
04:30 PM 23.9°F-4.5°C 20.9°F-6.2°C 88% 2.0 mph S3.2 kmh S 5.0 mph8.0 kmh 30.21 in1023.0 mb 0.01 in0.3 mm 0.00 in0.0 mm 0.03 in0.8 mm
04:45 PM 23.9°F-4.5°C 20.9°F-6.2°C 88% 1.0 mph S1.6 kmh S 4.0 mph6.4 kmh 30.21 in1023.0 mb 0.01 in0.3 mm 0.00 in0.0 mm 0.03 in0.8 mm
05:00 PM 24.1°F-4.4°C 21.3°F-5.9°C 89% 1.0 mph S1.6 kmh S 3.0 mph4.8 kmh 30.20 in1022.7 mb 0.01 in0.3 mm 0.00 in0.0 mm 0.04 in1.0 mm
05:15 PM 24.1°F-4.4°C 21.3°F-5.9°C 89% 2.0 mph S3.2 kmh S 4.0 mph6.4 kmh 30.20 in1022.7 mb 0.01 in0.3 mm 0.00 in0.0 mm 0.04 in1.0 mm
05:30 PM 24.1°F-4.4°C 21.6°F-5.8°C 90% 2.0 mph S3.2 kmh S 5.0 mph8.0 kmh 30.20 in1022.7 mb 0.02 in0.5 mm 0.04 in1.0 mm 0.05 in1.3 mm
05:45 PM 24.1°F-4.4°C 21.6°F-5.8°C 90% 1.0 mph S1.6 kmh S 3.0 mph4.8 kmh 30.19 in1022.4 mb 0.02 in0.5 mm 0.00 in0.0 mm 0.06 in1.5 mm
06:00 PM 24.1°F-4.4°C 21.6°F-5.8°C 90% 1.0 mph S1.6 kmh S 3.0 mph4.8 kmh 30.18 in1022.0 mb 0.03 in0.8 mm 0.01 in0.3 mm 0.07 in1.8 mm
06:15 PM 24.1°F-4.4°C 21.6°F-5.8°C 90% 1.0 mph S1.6 kmh S 4.0 mph6.4 kmh 30.19 in1022.4 mb 0.04 in1.0 mm 0.04 in1.0 mm 0.08 in2.0 mm
06:30 PM 23.9°F-4.5°C 21.7°F-5.7°C 91% 1.0 mph S1.6 kmh S 3.0 mph4.8 kmh 30.19 in1022.4 mb 0.04 in1.0 mm 0.00 in0.0 mm 0.09 in2.3 mm
06:45 PM 23.9°F-4.5°C 21.7°F-5.7°C 91% 1.0 mph S1.6 kmh S 3.0 mph4.8 kmh 30.19 in1022.4 mb 0.04 in1.0 mm 0.00 in0.0 mm 0.09 in2.3 mm
07:00 PM 24.1°F-4.4°C 21.8°F-5.7°C 91% Calm Calm 3.0 mph4.8 kmh 30.18 in1022.0 mb 0.03 in0.8 mm 0.00 in0.0 mm 0.10 in2.5 mm
07:15 PM 24.1°F-4.4°C 21.8°F-5.7°C 91% 1.0 mph S1.6 kmh S 3.0 mph4.8 kmh 30.18 in1022.0 mb 0.03 in0.8 mm 0.00 in0.0 mm 0.11 in2.8 mm
07:30 PM 24.3°F-4.3°C 22.0°F-5.6°C 91% Calm Calm 2.0 mph3.2 kmh 30.18 in1022.0 mb 0.03 in0.8 mm 0.00 in0.0 mm 0.12 in3.0 mm
07:45 PM 24.3°F-4.3°C 22.0°F-5.6°C 91% 1.0 mph S1.6 kmh S 4.0 mph6.4 kmh 30.18 in1022.0 mb 0.03 in0.8 mm 0.00 in0.0 mm 0.13 in3.3 mm
08:00 PM 24.1°F-4.4°C 21.8°F-5.7°C 91% Calm Calm 1.0 mph1.6 kmh 30.18 in1022.0 mb 0.03 in0.8 mm 0.00 in0.0 mm 0.13 in3.3 mm
08:15 PM 24.1°F-4.4°C 21.8°F-5.7°C 91% Calm Calm 3.0 mph4.8 kmh 30.18 in1022.0 mb 0.03 in0.8 mm 0.00 in0.0 mm 0.14 in3.6 mm
08:30 PM 24.3°F-4.3°C 22.0°F-5.6°C 91% Calm Calm -- 30.18 in1022.0 mb 0.02 in0.5 mm 0.00 in0.0 mm 0.14 in3.6 mm
08:45 PM 24.3°F-4.3°C 22.0°F-5.6°C 91% Calm Calm 1.0 mph1.6 kmh 30.18 in1022.0 mb 0.02 in0.5 mm 0.00 in0.0 mm 0.15 in3.8 mm
09:00 PM 24.1°F-4.4°C 21.8°F-5.7°C 91% Calm Calm -- 30.17 in1021.7 mb 0.02 in0.5 mm 0.00 in0.0 mm 0.15 in3.8 mm
09:15 PM 24.3°F-4.3°C 22.0°F-5.6°C 91% Calm Calm -- 30.17 in1021.7 mb 0.02 in0.5 mm 0.00 in0.0 mm 0.16 in4.1 mm
09:30 PM 24.4°F-4.2°C 21.9°F-5.6°C 90% Calm Calm -- 30.16 in1021.3 mb 0.02 in0.5 mm 0.00 in0.0 mm 0.16 in4.1 mm
09:45 PM 24.4°F-4.2°C 21.9°F-5.6°C 90% Calm Calm -- 30.16 in1021.3 mb 0.02 in0.5 mm 0.00 in0.0 mm 0.17 in4.3 mm
10:00 PM 24.4°F-4.2°C 21.9°F-5.6°C 90% Calm Calm -- 30.16 in1021.3 mb 0.02 in0.5 mm 0.00 in0.0 mm 0.17 in4.3 mm
10:15 PM 24.6°F-4.1°C 22.1°F-5.5°C 90% Calm Calm -- 30.16 in1021.3 mb 0.01 in0.3 mm 0.00 in0.0 mm 0.17 in4.3 mm
10:30 PM 24.6°F-4.1°C 22.1°F-5.5°C 90% Calm Calm -- 30.16 in1021.3 mb 0.01 in0.3 mm 0.00 in0.0 mm 0.17 in4.3 mm
10:45 PM 24.6°F-4.1°C 22.1°F-5.5°C 90% Calm Calm -- 30.15 in1021.0 mb 0.00 in0.0 mm 0.00 in0.0 mm 0.17 in4.3 mm
11:00 PM 25.0°F-3.9°C 22.5°F-5.3°C 90% Calm Calm -- 30.16 in1021.3 mb 0.01 in0.3 mm 0.01 in0.3 mm 0.17 in4.3 mm
11:15 PM 24.8°F-4.0°C 22.3°F-5.4°C 90% Calm Calm -- 30.16 in1021.3 mb 0.01 in0.3 mm 0.00 in0.0 mm 0.17 in4.3 mm
11:30 PM 25.0°F-3.9°C 22.5°F-5.3°C 90% Calm Calm -- 30.15 in1021.0 mb 0.01 in0.3 mm 0.00 in0.0 mm 0.17 in4.3 mm
11:45 PM 25.2°F-3.8°C 22.6°F-5.2°C 90% Calm Calm 1.0 mph1.6 kmh 30.15 in1021.0 mb 0.01 in0.3 mm 0.00 in0.0 mm 0.17 in4.3 mm